Time;durP1;ratioP1;P1;durP2;ratioP2;P2;SDS_P1;SDS_P2;PMS_P1;PMS_P2;Temp;Humidity;BMP_temperature;BMP_pressure;BME280_temperature;BME280_humidity;BME280_pressure;Samples;Min_cycle;Max_cycle;Signal;HPM_P1;HPM_P2
2022/05/28 00:01:30;;;;;;;15.77;8.80;;;;;;;-144.47;100.00;61586.06;4973866;28;20572;-85
2022/05/28 00:03:59;;;;;;;15.32;8.85;;;;;;;-144.47;100.00;61586.06;4974366;28;20057;-85
2022/05/28 00:06:28;;;;;;;14.90;8.77;;;;;;;-144.47;100.00;61586.06;4974298;28;20045;-86
2022/05/28 00:08:56;;;;;;;12.70;8.38;;;;;;;-144.47;100.00;61586.06;4971230;28;20042;-86
2022/05/28 00:11:33;;;;;;;12.52;8.75;;;;;;;-144.47;100.00;61586.06;4970758;28;20453;-86
2022/05/28 00:13:59;;;;;;;16.20;9.27;;;;;;;-144.47;100.00;61586.06;4971822;28;20093;-86
2022/05/28 00:16:25;;;;;;;12.25;8.18;;;;;;;-144.47;100.00;61586.06;4973352;28;20039;-86
2022/05/28 00:18:52;;;;;;;9.80;8.02;;;;;;;-144.47;100.00;61586.06;4974876;28;20038;-87
2022/05/28 00:21:17;;;;;;;14.45;8.20;;;;;;;-144.47;100.00;61586.06;4972762;28;20070;-86
2022/05/28 00:23:46;;;;;;;12.98;8.77;;;;;;;-144.47;100.00;61586.06;4974613;28;20031;-86
2022/05/28 00:26:13;;;;;;;11.18;8.57;;;;;;;-144.47;100.00;61586.06;4974676;28;20486;-86
2022/05/28 00:28:39;;;;;;;15.52;9.48;;;;;;;-144.47;100.00;61586.06;4973738;28;20058;-86
2022/05/28 00:31:05;;;;;;;9.52;8.60;;;;;;;-144.47;100.00;61586.06;4979059;28;20038;-86
2022/05/28 00:33:31;;;;;;;16.27;9.52;;;;;;;-144.47;100.00;61586.06;4996645;28;20042;-85
2022/05/28 00:36:01;;;;;;;13.80;9.00;;;;;;;-144.47;100.00;61586.06;4997369;28;20031;-86
2022/05/28 00:38:27;;;;;;;10.80;9.70;;;;;;;-144.47;100.00;61586.06;4998354;28;20168;-86
2022/05/28 00:40:56;;;;;;;17.02;10.15;;;;;;;-144.47;100.00;61586.06;4998524;28;20030;-86
2022/05/28 00:43:22;;;;;;;13.60;10.25;;;;;;;-144.47;100.00;61586.06;4978654;28;20048;-85
2022/05/28 00:46:41;;;;;;;10.93;9.80;;;;;;;-144.47;100.00;61586.06;4974196;28;20027;-86
2022/05/28 00:49:22;;;;;;;12.90;9.90;;;;;;;-144.47;100.00;61586.06;4972088;28;20088;-86
2022/05/28 00:51:50;;;;;;;21.40;10.73;;;;;;;-144.47;100.00;61586.06;4972445;28;20031;-85
2022/05/28 00:54:16;;;;;;;16.35;11.05;;;;;;;-144.47;100.00;61586.06;4956058;28;20046;-85
2022/05/28 00:56:41;;;;;;;13.25;10.27;;;;;;;-144.47;100.00;61586.06;4971261;28;20054;-86
2022/05/28 00:59:08;;;;;;;13.60;10.38;;;;;;;-144.47;100.00;61586.06;4969149;28;20137;-86
2022/05/28 01:01:37;;;;;;;15.80;11.60;;;;;;;-144.47;100.00;61586.06;4953484;28;20046;-86
2022/05/28 01:04:06;;;;;;;12.98;10.77;;;;;;;-144.47;100.00;61586.06;4969861;28;20043;-86
2022/05/28 01:06:34;;;;;;;12.70;11.15;;;;;;;-144.47;100.00;61586.06;4971374;28;20157;-86
2022/05/28 01:09:07;;;;;;;15.57;10.82;;;;;;;-144.47;100.00;61586.06;4971863;28;20076;-86
2022/05/28 01:11:54;;;;;;;15.07;11.32;;;;;;;-144.47;100.00;61586.06;4971823;28;20108;-85
2022/05/28 01:14:31;;;;;;;14.05;10.95;;;;;;;-144.47;100.00;61586.06;4971375;28;20159;-86
2022/05/28 01:17:35;;;;;;;20.95;11.43;;;;;;;-144.47;100.00;61586.06;4968506;28;20051;-85
2022/05/28 01:20:44;;;;;;;18.60;12.60;;;;;;;-144.47;100.00;61586.06;4968319;28;20065;-86
2022/05/28 01:23:20;;;;;;;;;;;;;;;-144.47;100.00;61586.06;4970625;28;20050;-85
2022/05/28 01:25:56;;;;;;;19.95;15.00;;;;;;;-144.47;100.00;61586.06;4973450;28;19918;-84
2022/05/28 01:28:29;;;;;;;20.70;14.18;;;;;;;-144.47;100.00;61586.06;4969327;28;20031;-86
2022/05/28 01:30:56;;;;;;;18.73;14.25;;;;;;;-144.47;100.00;61586.06;4968549;28;20089;-86
2022/05/28 01:33:22;;;;;;;17.85;14.50;;;;;;;-144.47;100.00;61586.06;4968959;28;20497;-86
2022/05/28 01:35:49;;;;;;;17.85;13.90;;;;;;;-144.47;100.00;61586.06;4973268;28;20383;-86
2022/05/28 01:38:16;;;;;;;22.42;14.43;;;;;;;-144.47;100.00;61586.06;4972895;28;20505;-86
2022/05/28 01:40:43;;;;;;;24.63;15.60;;;;;;;-144.47;100.00;61586.06;4972709;28;20483;-86
2022/05/28 01:43:12;;;;;;;21.27;17.10;;;;;;;-144.47;100.00;61586.06;4972601;28;20033;-86
2022/05/28 01:45:41;;;;;;;21.40;16.48;;;;;;;-144.47;100.00;61586.06;4972977;28;20039;-86
2022/05/28 01:48:08;;;;;;;19.08;14.32;;;;;;;-144.47;100.00;61586.06;4972603;28;20051;-86
2022/05/28 01:50:42;;;;;;;17.77;15.55;;;;;;;-144.47;100.00;61586.06;4972185;28;20062;-84
2022/05/28 01:53:11;;;;;;;21.05;14.07;;;;;;;-144.47;100.00;61586.06;4972364;28;20034;-87
2022/05/28 01:55:43;;;;;;;24.40;14.32;;;;;;;-144.47;100.00;61586.06;4972397;28;20042;-85
2022/05/28 01:58:08;;;;;;;16.92;14.30;;;;;;;-144.47;100.00;61586.06;4972422;28;20465;-86
2022/05/28 02:00:34;;;;;;;18.65;14.68;;;;;;;-144.47;100.00;61586.06;4972392;28;20122;-86
2022/05/28 02:03:01;;;;;;;20.67;15.27;;;;;;;-144.47;100.00;61586.06;4973507;28;20034;-86
2022/05/28 02:05:27;;;;;;;16.88;14.20;;;;;;;-144.47;100.00;61586.06;4972504;28;20114;-86
2022/05/28 02:07:53;;;;;;;21.85;15.38;;;;;;;-144.47;100.00;61586.06;4969749;28;20019;-84
2022/05/28 02:10:21;;;;;;;18.65;16.08;;;;;;;-144.47;100.00;61586.06;4971890;28;20086;-87
2022/05/28 02:13:02;;;;;;;27.02;17.40;;;;;;;-144.47;100.00;61586.06;4972127;28;20035;-87
2022/05/28 02:15:36;;;;;;;27.08;18.17;;;;;;;-144.47;100.00;61586.06;4967550;28;20479;-86
2022/05/28 02:18:23;;;;;;;30.10;20.33;;;;;;;-144.47;100.00;61586.06;4972084;28;20038;-87
2022/05/28 02:21:15;;;;;;;29.77;21.23;;;;;;;-144.47;100.00;61586.06;4972024;28;20479;-87
2022/05/28 02:23:47;;;;;;;20.33;17.52;;;;;;;-144.47;100.00;61586.06;4970454;28;20391;-87
2022/05/28 02:26:16;;;;;;;25.23;18.75;;;;;;;-144.47;100.00;61586.06;4971966;28;20414;-86
2022/05/28 02:28:43;;;;;;;22.48;17.48;;;;;;;-144.47;100.00;61586.06;4971940;28;20043;-87
2022/05/28 02:31:24;;;;;;;25.88;16.20;;;;;;;-144.47;100.00;61586.06;4970371;28;20050;-86
2022/05/28 02:33:49;;;;;;;23.52;17.10;;;;;;;-144.47;100.00;61586.06;4971538;28;20031;-87
2022/05/28 02:36:16;;;;;;;26.92;18.92;;;;;;;-144.47;100.00;61586.06;4971399;28;20155;-87
2022/05/28 02:38:42;;;;;;;24.67;18.83;;;;;;;-144.47;100.00;61586.06;4971851;28;20039;-86
2022/05/28 02:41:08;;;;;;;27.17;19.88;;;;;;;-144.47;100.00;61586.06;4969838;28;20041;-85
2022/05/28 02:43:33;;;;;;;29.45;19.42;;;;;;;-144.47;100.00;61586.06;4971213;28;20050;-86
2022/05/28 02:46:01;;;;;;;19.80;17.33;;;;;;;-144.47;100.00;61586.06;4971775;28;20057;-87
2022/05/28 02:48:27;;;;;;;24.67;16.92;;;;;;;-144.47;100.00;61586.06;4971408;28;20596;-87
2022/05/28 02:50:52;;;;;;;20.17;16.67;;;;;;;-144.47;100.00;61586.06;4971558;28;20166;-86
2022/05/28 02:53:18;;;;;;;21.48;15.63;;;;;;;-144.47;100.00;61586.06;4971415;28;20050;-88
2022/05/28 02:55:44;;;;;;;18.08;14.68;;;;;;;-144.47;100.00;61586.06;4971469;28;20109;-86
2022/05/28 02:58:09;;;;;;;28.85;16.77;;;;;;;-144.47;100.00;61586.06;4970610;28;20030;-87
2022/05/28 03:00:35;;;;;;;18.50;16.35;;;;;;;-144.47;100.00;61586.06;4970154;28;20093;-86
2022/05/28 03:03:00;;;;;;;24.38;17.30;;;;;;;-144.47;100.00;61586.06;4971307;28;20471;-87
2022/05/28 03:05:26;;;;;;;30.08;22.75;;;;;;;-144.47;100.00;61586.06;4970952;28;20050;-87
2022/05/28 03:07:52;;;;;;;28.10;21.15;;;;;;;-144.47;100.00;61586.06;4967646;28;20225;-87
2022/05/28 03:10:18;;;;;;;27.52;21.30;;;;;;;-144.47;100.00;61586.06;4971461;28;20475;-87
2022/05/28 03:12:44;;;;;;;30.08;21.98;;;;;;;-144.47;100.00;61586.06;4971064;28;20101;-87
2022/05/28 03:15:11;;;;;;;35.03;25.17;;;;;;;-144.47;100.00;61586.06;4971060;28;20027;-87
2022/05/28 03:17:37;;;;;;;32.03;24.73;;;;;;;-144.47;100.00;61586.06;4970056;28;20062;-86
2022/05/28 03:20:04;;;;;;;32.60;24.50;;;;;;;-144.47;100.00;61586.06;4974359;28;20070;-87
2022/05/28 03:22:30;;;;;;;29.42;24.20;;;;;;;-144.47;100.00;61586.06;4974885;28;20042;-86
2022/05/28 03:24:56;;;;;;;33.38;26.23;;;;;;;-144.47;100.00;61586.06;4975232;28;20057;-87
2022/05/28 03:27:21;;;;;;;31.80;25.67;;;;;;;-144.47;100.00;61586.06;4974788;28;20487;-87
2022/05/28 03:29:47;;;;;;;37.15;26.85;;;;;;;-144.47;100.00;61586.06;4975064;28;20030;-86
2022/05/28 03:32:12;;;;;;;41.13;26.73;;;;;;;-144.47;100.00;61586.06;4974874;28;20360;-86
2022/05/28 03:34:38;;;;;;;32.63;25.65;;;;;;;-144.47;100.00;61586.06;4974745;28;20038;-86
2022/05/28 03:37:04;;;;;;;31.08;23.55;;;;;;;-144.47;100.00;61586.06;4975127;28;20110;-86
2022/05/28 03:39:30;;;;;;;32.15;25.45;;;;;;;-144.47;100.00;61586.06;4973417;28;20056;-86
2022/05/28 03:41:55;;;;;;;31.55;23.75;;;;;;;-144.47;100.00;61586.06;4975267;28;20038;-87
2022/05/28 03:44:21;;;;;;;35.65;22.67;;;;;;;-144.47;100.00;61586.06;4974665;28;20038;-87
2022/05/28 03:46:46;;;;;;;30.17;22.90;;;;;;;-144.47;100.00;61586.06;4974877;28;20402;-87
2022/05/28 03:49:26;;;;;;;29.25;23.10;;;;;;;-144.47;100.00;61586.06;4974413;28;20364;-86
2022/05/28 03:51:52;;;;;;;32.80;21.85;;;;;;;-144.47;100.00;61586.06;4973858;28;20035;-87
2022/05/28 03:54:17;;;;;;;26.48;21.55;;;;;;;-144.47;100.00;61586.06;4974546;28;20057;-86
2022/05/28 03:56:44;;;;;;;24.75;21.02;;;;;;;-144.47;100.00;61586.06;4974696;28;20111;-86
2022/05/28 03:59:10;;;;;;;27.30;20.67;;;;;;;-144.47;100.00;61586.06;4974336;28;20105;-86
2022/05/28 04:01:36;;;;;;;28.17;21.65;;;;;;;-144.47;100.00;61586.06;4974410;28;20047;-87
2022/05/28 04:04:02;;;;;;;27.98;21.67;;;;;;;-144.47;100.00;61586.06;4972913;28;20602;-87
2022/05/28 04:06:28;;;;;;;26.25;21.45;;;;;;;-144.47;100.00;61586.06;4974135;28;20070;-87
2022/05/28 04:08:53;;;;;;;28.05;23.40;;;;;;;-144.47;100.00;61586.06;4974435;28;20058;-86
2022/05/28 04:11:19;;;;;;;24.58;21.95;;;;;;;-144.47;100.00;61586.06;4972817;28;20226;-85
2022/05/28 04:13:45;;;;;;;31.15;23.30;;;;;;;-144.47;100.00;61586.06;4974310;28;20043;-86
2022/05/28 04:16:11;;;;;;;30.30;22.98;;;;;;;-144.47;100.00;61586.06;4973922;28;20035;-86
2022/05/28 04:18:37;;;;;;;33.63;21.30;;;;;;;-144.47;100.00;61586.06;4974097;28;20031;-86
2022/05/28 04:21:03;;;;;;;28.13;21.52;;;;;;;-144.47;100.00;61586.06;4972919;28;20506;-87
2022/05/28 04:23:28;;;;;;;24.65;21.52;;;;;;;-144.47;100.00;61586.06;4973960;28;20038;-87
2022/05/28 04:25:54;;;;;;;30.23;24.75;;;;;;;-144.47;100.00;61586.06;4974229;28;20117;-87
2022/05/28 04:28:19;;;;;;;35.28;24.40;;;;;;;-144.47;100.00;61586.06;4974094;28;20042;-86
2022/05/28 04:30:45;;;;;;;34.13;24.65;;;;;;;-144.47;100.00;61586.06;4973829;28;20518;-87
2022/05/28 04:33:10;;;;;;;34.40;24.85;;;;;;;-144.47;100.00;61586.06;4973566;28;20034;-87
2022/05/28 04:35:36;;;;;;;33.75;25.75;;;;;;;-144.47;100.00;61586.06;4973593;28;20037;-86
2022/05/28 04:38:01;;;;;;;30.98;24.13;;;;;;;-144.47;100.00;61586.06;4973742;28;20102;-87
2022/05/28 04:40:27;;;;;;;34.97;26.08;;;;;;;-144.47;100.00;61586.06;4972395;28;20486;-87
2022/05/28 04:42:53;;;;;;;33.47;26.23;;;;;;;-144.47;100.00;61586.06;4972746;28;20042;-87
2022/05/28 04:45:19;;;;;;;37.83;27.05;;;;;;;-144.47;100.00;61586.06;4973521;28;20112;-86
2022/05/28 04:47:44;;;;;;;33.97;26.65;;;;;;;-144.47;100.00;61586.06;4973638;28;20035;-86
2022/05/28 04:50:11;;;;;;;34.30;27.27;;;;;;;-144.47;100.00;61586.06;4973068;28;20054;-87
2022/05/28 04:52:38;;;;;;;34.38;26.73;;;;;;;-144.47;100.00;61586.06;4973589;28;20093;-86
2022/05/28 04:55:06;;;;;;;34.58;26.13;;;;;;;-144.47;100.00;61586.06;4972551;28;20045;-86
2022/05/28 04:57:31;;;;;;;41.88;30.55;;;;;;;-144.47;100.00;61586.06;4972320;28;20419;-87
2022/05/28 04:59:57;;;;;;;36.95;29.73;;;;;;;-144.47;100.00;61586.06;4973793;28;20027;-87
2022/05/28 05:02:22;;;;;;;41.10;30.15;;;;;;;-144.47;100.00;61586.06;4969357;28;20487;-86
2022/05/28 05:04:47;;;;;;;35.58;28.25;;;;;;;-144.47;100.00;61586.06;4972419;28;20698;-87
2022/05/28 05:07:13;;;;;;;38.45;30.77;;;;;;;-144.47;100.00;61586.06;4973953;28;20054;-87
2022/05/28 05:09:38;;;;;;;41.50;30.35;;;;;;;-144.47;100.00;61586.06;4974652;28;20435;-87
2022/05/28 05:12:04;;;;;;;39.35;29.27;;;;;;;-144.47;100.00;61586.06;4975764;28;20031;-86
2022/05/28 05:14:30;;;;;;;36.45;30.55;;;;;;;-144.47;100.00;61586.06;4975383;28;20035;-86
2022/05/28 05:16:55;;;;;;;40.92;31.17;;;;;;;-144.47;100.00;61586.06;4975685;28;20042;-86
2022/05/28 05:19:21;;;;;;;41.25;31.48;;;;;;;-144.47;100.00;61586.06;4972767;28;20070;-86
2022/05/28 05:21:46;;;;;;;38.17;30.92;;;;;;;-144.47;100.00;61586.06;4973594;28;20497;-86
2022/05/28 05:24:11;;;;;;;44.25;28.83;;;;;;;-144.47;100.00;61586.06;4973136;28;20506;-86
2022/05/28 05:26:37;;;;;;;36.13;28.98;;;;;;;-144.47;100.00;61586.06;4972544;28;20491;-86
2022/05/28 05:29:02;;;;;;;32.90;28.42;;;;;;;-144.47;100.00;61586.06;4973968;28;20546;-86
2022/05/28 05:31:28;;;;;;;34.70;30.90;;;;;;;-144.47;100.00;61586.06;4973528;28;20035;-86
2022/05/28 05:33:53;;;;;;;36.13;29.23;;;;;;;-144.47;100.00;61586.06;4973540;28;20058;-86
2022/05/28 05:36:19;;;;;;;34.22;27.63;;;;;;;-144.47;100.00;61586.06;4972615;28;20504;-87
2022/05/28 05:38:44;;;;;;;36.85;27.95;;;;;;;-144.47;100.00;61586.06;4972973;28;20094;-87
2022/05/28 05:41:10;;;;;;;33.70;27.17;;;;;;;-144.47;100.00;61586.06;4972119;28;20055;-85
2022/05/28 05:43:36;;;;;;;35.42;27.10;;;;;;;-144.47;100.00;61586.06;4972847;28;20035;-87
2022/05/28 05:46:02;;;;;;;35.42;28.50;;;;;;;-144.47;100.00;61586.06;4973227;28;20424;-88
2022/05/28 05:48:29;;;;;;;35.20;27.48;;;;;;;-144.47;100.00;61586.06;4974526;28;20562;-88
2022/05/28 05:50:54;;;;;;;34.40;27.02;;;;;;;-144.47;100.00;61586.06;4972369;28;20470;-87
2022/05/28 05:53:20;;;;;;;36.25;26.08;;;;;;;-144.47;100.00;61586.06;4972393;28;20448;-86
2022/05/28 05:55:46;;;;;;;36.35;27.20;;;;;;;-144.47;100.00;61586.06;4972852;28;20042;-87
2022/05/28 05:58:12;;;;;;;32.60;27.00;;;;;;;-144.47;100.00;61586.06;4971242;28;20019;-87
2022/05/28 06:00:39;;;;;;;31.40;26.52;;;;;;;-144.47;100.00;61586.06;4973094;28;20054;-87
2022/05/28 06:03:05;;;;;;;30.27;26.23;;;;;;;-144.47;100.00;61586.06;4972575;28;20038;-87
2022/05/28 06:05:31;;;;;;;32.63;26.25;;;;;;;-144.47;100.00;61586.06;4972204;28;20130;-87
2022/05/28 06:07:56;;;;;;;34.05;27.75;;;;;;;-144.47;100.00;61586.06;4973182;28;20113;-87
2022/05/28 06:10:23;;;;;;;38.25;27.05;;;;;;;-144.47;100.00;61586.06;4973113;28;20031;-86
2022/05/28 06:12:49;;;;;;;32.47;26.38;;;;;;;-144.47;100.00;61586.06;4977147;28;20074;-86
2022/05/28 06:15:14;;;;;;;29.83;25.90;;;;;;;-144.47;100.00;61586.06;4984091;28;20027;-86
2022/05/28 06:17:40;;;;;;;34.33;26.10;;;;;;;-144.47;100.00;61586.06;4974764;28;20038;-87
2022/05/28 06:20:09;;;;;;;33.42;25.60;;;;;;;-144.47;100.00;61586.06;4973613;28;20046;-87
2022/05/28 06:22:35;;;;;;;31.90;25.13;;;;;;;-144.47;100.00;61586.06;4972028;28;20499;-87
2022/05/28 06:25:01;;;;;;;30.40;24.67;;;;;;;-144.47;100.00;61586.06;4974413;28;20227;-88
2022/05/28 06:27:27;;;;;;;28.83;25.75;;;;;;;-144.47;100.00;61586.06;4975804;28;20372;-86
2022/05/28 06:29:52;;;;;;;33.53;26.63;;;;;;;-144.47;100.00;61586.06;4969901;28;20043;-87
2022/05/28 06:32:18;;;;;;;34.83;26.83;;;;;;;-144.47;100.00;61586.06;4975760;28;20069;-86
2022/05/28 06:34:44;;;;;;;29.02;23.77;;;;;;;-144.47;100.00;61586.06;4984656;28;20065;-85
2022/05/28 06:37:10;;;;;;;30.02;25.77;;;;;;;-144.47;100.00;61586.06;4979761;28;20035;-87
2022/05/28 06:39:36;;;;;;;31.90;26.58;;;;;;;-144.47;100.00;61586.06;4978090;28;20042;-86
2022/05/28 06:42:03;;;;;;;36.42;25.60;;;;;;;-144.47;100.00;61586.06;4976018;28;20039;-87
2022/05/28 06:44:29;;;;;;;33.78;26.00;;;;;;;-144.47;100.00;61586.06;4973313;28;20375;-88
2022/05/28 06:46:55;;;;;;;36.35;26.75;;;;;;;-144.47;100.00;61586.06;4973005;28;20035;-87
2022/05/28 06:49:20;;;;;;;33.50;27.25;;;;;;;-144.47;100.00;61586.06;4973560;28;20034;-88
2022/05/28 06:51:47;;;;;;;33.28;25.40;;;;;;;-144.47;100.00;61586.06;4973913;28;20038;-86
2022/05/28 06:54:12;;;;;;;39.40;27.75;;;;;;;-144.47;100.00;61586.06;4972847;28;20118;-87
2022/05/28 06:56:38;;;;;;;35.95;27.20;;;;;;;-144.47;100.00;61586.06;4974139;28;20567;-87
2022/05/28 06:59:03;;;;;;;35.63;28.45;;;;;;;-144.47;100.00;61586.06;4975977;28;20038;-87
2022/05/28 07:01:29;;;;;;;42.20;28.63;;;;;;;-144.47;100.00;61586.06;4983651;28;20440;-84
2022/05/28 07:03:55;;;;;;;41.80;29.60;;;;;;;-144.47;100.00;61586.06;4980939;28;20043;-86
2022/05/28 07:06:20;;;;;;;40.85;28.95;;;;;;;-144.47;100.00;61586.06;4981118;28;20101;-85
2022/05/28 07:08:46;;;;;;;37.25;28.60;;;;;;;-144.47;100.00;61586.06;4983195;28;20039;-86
2022/05/28 07:11:12;;;;;;;35.92;27.52;;;;;;;-144.47;100.00;61586.06;4979852;28;20121;-87
2022/05/28 07:13:38;;;;;;;35.50;26.85;;;;;;;-144.47;100.00;61586.06;4978935;28;20031;-87
2022/05/28 07:16:05;;;;;;;36.63;25.80;;;;;;;-144.47;100.00;61586.06;4972191;28;20038;-87
2022/05/28 07:18:32;;;;;;;38.03;27.63;;;;;;;-144.47;100.00;61586.06;4973252;28;20059;-86
2022/05/28 07:20:58;;;;;;;30.05;25.80;;;;;;;-144.47;100.00;61586.06;4983756;28;20035;-87
2022/05/28 07:23:28;;;;;;;33.45;25.83;;;;;;;-144.47;100.00;61586.06;4971629;28;20045;-87
2022/05/28 07:26:06;;;;;;;37.22;24.35;;;;;;;-144.47;100.00;61586.06;4968297;28;20031;-86
2022/05/28 07:28:33;;;;;;;32.28;25.40;;;;;;;-144.47;100.00;61586.06;4969290;28;20453;-87
2022/05/28 07:31:01;;;;;;;31.52;24.50;;;;;;;-144.47;100.00;61586.06;4972623;28;20402;-86
2022/05/28 07:33:28;;;;;;;30.73;23.77;;;;;;;-144.47;100.00;61586.06;4970326;28;20069;-87
2022/05/28 07:35:56;;;;;;;30.35;23.27;;;;;;;-144.47;100.00;61586.06;4967911;28;20047;-86
2022/05/28 07:38:23;;;;;;;28.65;22.77;;;;;;;-144.47;100.00;61586.06;4971414;28;20125;-87
2022/05/28 07:40:48;;;;;;;27.63;18.73;;;;;;;-144.47;100.00;61586.06;4971892;28;20047;-87
2022/05/28 07:43:14;;;;;;;29.38;20.88;;;;;;;-144.47;100.00;61586.06;4971552;28;20035;-87
2022/05/28 07:45:42;;;;;;;22.40;18.80;;;;;;;-144.47;100.00;61586.06;4971954;28;20505;-86
2022/05/28 07:48:08;;;;;;;17.63;14.90;;;;;;;-144.47;100.00;61586.06;4971604;28;20031;-86
2022/05/28 07:50:34;;;;;;;14.98;12.63;;;;;;;-144.47;100.00;61586.06;4971429;28;20059;-87
2022/05/28 07:53:01;;;;;;;12.93;10.60;;;;;;;-144.47;100.00;61586.06;4971890;28;20196;-86
2022/05/28 07:55:28;;;;;;;11.30;9.70;;;;;;;-144.47;100.00;61586.06;4971761;28;20031;-87
2022/05/28 07:57:54;;;;;;;10.65;9.57;;;;;;;-144.47;100.00;61586.06;4968088;28;20041;-88
2022/05/28 08:00:19;;;;;;;9.57;8.52;;;;;;;-144.47;100.00;61586.06;4970348;28;20031;-87
2022/05/28 08:02:45;;;;;;;9.52;7.03;;;;;;;-144.47;100.00;61586.06;4971316;28;20038;-87
2022/05/28 08:05:11;;;;;;;7.10;6.03;;;;;;;-144.47;100.00;61586.06;4972833;28;20687;-88
2022/05/28 08:07:36;;;;;;;6.63;5.00;;;;;;;-144.47;100.00;61586.06;4975346;28;20034;-88
2022/05/28 08:10:03;;;;;;;7.15;3.95;;;;;;;-144.47;100.00;61586.06;4975202;28;20031;-87
2022/05/28 08:12:30;;;;;;;8.13;4.35;;;;;;;-144.47;100.00;61586.06;4975360;28;20038;-87
2022/05/28 08:14:55;;;;;;;5.93;3.58;;;;;;;-144.47;100.00;61586.06;4975121;28;20027;-87
2022/05/28 08:17:21;;;;;;;7.32;4.13;;;;;;;-144.47;100.00;61586.06;4974585;28;20048;-87
2022/05/28 08:19:47;;;;;;;5.15;3.95;;;;;;;-144.47;100.00;61586.06;4975915;28;20027;-88
2022/05/28 08:24:56;;;;;;;3.75;3.45;;;;;;;-144.47;100.00;61586.06;4977535;28;20110;-88
2022/05/28 08:27:22;;;;;;;3.60;3.30;;;;;;;-144.47;100.00;61586.06;4986038;28;20034;-86
2022/05/28 08:29:47;;;;;;;4.05;2.90;;;;;;;-144.47;100.00;61586.06;4975387;28;20042;-86
2022/05/28 08:32:16;;;;;;;4.38;2.70;;;;;;;-144.47;100.00;61586.06;4975350;28;20031;-86
2022/05/28 08:34:43;;;;;;;3.83;3.00;;;;;;;-144.47;100.00;61586.06;4974929;28;20499;-88
2022/05/28 08:37:10;;;;;;;3.90;2.75;;;;;;;-144.47;100.00;61586.06;4975767;28;20058;-88
2022/05/28 08:39:36;;;;;;;2.80;2.38;;;;;;;-144.47;100.00;61586.06;4974814;28;20042;-88
2022/05/28 08:42:01;;;;;;;3.67;2.40;;;;;;;-144.47;100.00;61586.06;4975529;28;20060;-88
2022/05/28 08:44:31;;;;;;;3.30;2.60;;;;;;;-144.47;100.00;61586.06;4975296;28;20051;-87
2022/05/28 08:47:07;;;;;;;5.13;2.70;;;;;;;-144.47;100.00;61586.06;4969525;28;20150;-87
2022/05/28 08:49:34;;;;;;;4.85;2.38;;;;;;;-144.47;100.00;61586.06;4967032;28;20055;-88
2022/05/28 08:52:11;;;;;;;3.78;3.15;;;;;;;-144.47;100.00;61586.06;4974280;28;20041;-82
2022/05/28 08:54:56;;;;;;;5.18;2.67;;;;;;;-144.47;100.00;61586.06;4972475;28;20549;-78
2022/05/28 08:57:46;;;;;;;4.60;2.70;;;;;;;-144.47;100.00;61586.06;4973171;28;20047;-78
2022/05/28 09:00:16;;;;;;;3.92;2.15;;;;;;;-144.47;100.00;61586.06;4971781;28;20039;-77
2022/05/28 09:02:55;;;;;;;2.58;1.30;;;;;;;-144.47;100.00;61586.06;4973307;28;20483;-78
2022/05/28 09:05:39;;;;;;;3.00;2.70;;;;;;;-144.47;100.00;61586.06;4972743;28;20146;-81
2022/05/28 09:08:06;;;;;;;3.33;2.65;;;;;;;-144.47;100.00;61586.06;4970880;28;20027;-75
2022/05/28 09:10:46;;;;;;;4.00;2.03;;;;;;;-144.47;100.00;61586.06;4973013;28;20038;-74
2022/05/28 09:13:38;;;;;;;3.53;1.88;;;;;;;-144.47;100.00;61586.06;4972770;28;20038;-74
2022/05/28 09:16:06;;;;;;;2.70;1.75;;;;;;;-144.47;100.00;61586.06;4969932;28;20383;-73
2022/05/28 09:18:38;;;;;;;3.70;1.58;;;;;;;-144.47;100.00;61586.06;4973239;28;20389;-76
2022/05/28 09:21:05;;;;;;;2.47;1.45;;;;;;;-144.47;100.00;61586.06;4955700;28;20138;-79
2022/05/28 09:23:43;;;;;;;1.55;1.35;;;;;;;-144.47;100.00;61586.06;4972627;28;20139;-80
2022/05/28 09:26:10;;;;;;;3.03;1.40;;;;;;;-144.47;100.00;61586.06;4972964;28;20344;-82
2022/05/28 09:28:56;;;;;;;1.27;1.10;;;;;;;-144.47;100.00;61586.06;4972281;28;20026;-81
2022/05/28 09:31:31;;;;;;;1.30;1.20;;;;;;;-144.47;100.00;61586.06;4971117;28;20053;-81
2022/05/28 09:34:23;;;;;;;1.38;1.27;;;;;;;-144.47;100.00;61586.06;4969442;28;20609;-81
2022/05/28 09:37:02;;;;;;;2.05;1.10;;;;;;;-144.47;100.00;61586.06;4971789;28;20063;-81
2022/05/28 09:39:45;;;;;;;2.00;1.35;;;;;;;-144.47;100.00;61586.06;4968128;28;20434;-81
2022/05/28 09:42:29;;;;;;;1.65;1.50;;;;;;;-144.47;100.00;61586.06;4971415;28;20043;-81
2022/05/28 09:45:10;;;;;;;3.67;1.63;;;;;;;-144.47;100.00;61586.06;4968876;28;20093;-81
2022/05/28 09:47:48;;;;;;;2.78;1.88;;;;;;;-144.47;100.00;61586.06;4970345;28;20035;-81
2022/05/28 09:50:38;;;;;;;3.10;1.88;;;;;;;-144.47;100.00;61586.06;4972038;28;20475;-81
2022/05/28 09:56:22;;;;;;;3.90;1.80;;;;;;;-144.47;100.00;61586.06;4972425;28;20403;-82
2022/05/28 09:58:48;;;;;;;6.40;1.90;;;;;;;-144.47;100.00;61586.06;4971637;28;20110;-81
2022/05/28 10:01:22;;;;;;;1.70;1.60;;;;;;;-144.47;100.00;61586.06;4970246;28;20045;-81
2022/05/28 10:06:45;;;;;;;2.67;1.73;;;;;;;-144.47;100.00;61586.06;4985554;23;20050;-76
2022/05/28 10:09:32;;;;;;;1.90;1.80;;;;;;;-144.47;100.00;61586.06;4632555;28;10000165;-75
2022/05/28 10:12:00;;;;;;;7.50;1.90;;;;;;;-144.47;100.00;61586.06;4979936;28;20030;-76
2022/05/28 10:14:29;;;;;;;3.72;1.52;;;;;;;-144.47;100.00;61586.06;4982989;28;20035;-74
2022/05/28 10:16:57;;;;;;;;;;;;;;;-144.47;100.00;61586.06;4975652;28;20468;-75
2022/05/28 10:19:28;;;;;;;2.33;1.58;;;;;;;-144.47;100.00;61586.06;4982376;28;19917;-75
2022/05/28 10:21:56;;;;;;;2.83;2.20;;;;;;;-144.47;100.00;61586.06;4979376;28;20494;-75
2022/05/28 10:24:24;;;;;;;2.97;1.80;;;;;;;-144.47;100.00;61586.06;4982494;28;20034;-75
2022/05/28 10:26:55;;;;;;;2.05;1.77;;;;;;;-144.47;100.00;61586.06;4979892;28;20031;-75
2022/05/28 10:29:38;;;;;;;2.00;1.80;;;;;;;-144.47;100.00;61586.06;4982138;28;20038;-75
2022/05/28 10:32:25;;;;;;;4.47;2.28;;;;;;;-144.47;100.00;61586.06;4977469;28;20134;-75
2022/05/28 10:35:00;;;;;;;2.30;2.05;;;;;;;-144.47;100.00;61586.06;4978734;28;21507;-75
2022/05/28 10:37:25;;;;;;;4.07;2.20;;;;;;;-144.47;100.00;61586.06;4982250;28;20034;-75
2022/05/28 10:40:06;;;;;;;2.72;2.00;;;;;;;-144.47;100.00;61586.06;4979684;28;20041;-75
2022/05/28 10:42:32;;;;;;;3.13;2.33;;;;;;;-144.47;100.00;61586.06;4981946;28;20076;-75
2022/05/28 10:44:58;;;;;;;3.17;2.22;;;;;;;-144.47;100.00;61586.06;4979374;28;20026;-75
2022/05/28 10:48:02;;;;;;;3.88;2.63;;;;;;;-144.47;100.00;61586.06;4980724;28;20061;-75
2022/05/28 10:51:11;;;;;;;3.50;2.75;;;;;;;-144.47;100.00;61586.06;4982174;28;20125;-75
2022/05/28 10:54:05;;;;;;;5.03;2.90;;;;;;;-144.47;100.00;61586.06;4977806;28;20089;-75
2022/05/28 10:57:06;;;;;;;3.10;2.55;;;;;;;-144.47;100.00;61586.06;4979686;28;20035;-75
2022/05/28 11:00:11;;;;;;;6.18;3.08;;;;;;;-144.47;100.00;61586.06;4977504;28;20134;-75
2022/05/28 11:03:10;;;;;;;3.35;3.00;;;;;;;-144.47;100.00;61586.06;4993041;28;20114;-75
2022/05/28 11:05:37;;;;;;;4.10;2.88;;;;;;;-144.47;100.00;61586.06;4977819;28;20042;-76
2022/05/28 11:08:27;;;;;;;5.70;2.83;;;;;;;-144.47;100.00;61586.06;4979599;28;20121;-75
2022/05/28 11:11:30;;;;;;;2.95;2.58;;;;;;;-144.47;100.00;61586.06;4979356;28;20038;-75
2022/05/28 11:14:33;;;;;;;3.97;3.00;;;;;;;-144.47;100.00;61586.06;4997540;28;20082;-75
2022/05/28 11:17:17;;;;;;;4.40;2.95;;;;;;;-144.47;100.00;61586.06;4982308;28;20038;-77
2022/05/28 11:20:04;;;;;;;4.00;2.88;;;;;;;-144.47;100.00;61586.06;4996096;28;20156;-75
2022/05/28 11:22:48;;;;;;;4.30;2.95;;;;;;;-144.47;100.00;61586.06;4975714;28;20041;-74